• Join FlightAware (Why Join?)
  • Login
  • US Flag 
10:31PM EDT


 

Airport Tracker/Info


-or-


 

Live Flight TrackerFlight Track Log ✈ THY2229 ✈ 29-Aug-2013 ✈ LTAJ / GZT - LTBA / IST

Flight Track Log - Related Links

Times and Time Zones

All times are in EDT time to prevent confusion due to time zone crossing. See the THY2229 flight status page for this flight to view local times or setup timezone preferences in your user account.

Time Position Orientation Groundspeed Altitude Reporting Facility
EDT Latitude Longitude Course Direction KTS MPH feet Rate Location/Type
04:53PM 37.3242 36.7603 304° West  Level Estimated
04:54PM 37.3778 36.6571 303° West  Level Estimated
04:55PM 37.4312 36.5538 303° West  Level Estimated
04:56PM 37.4845 36.4503 303° West  Level Estimated
04:57PM 37.5378 36.3466 303° West  Level Estimated
04:58PM 37.5909 36.2428 303° West  Level Estimated
04:59PM 37.6440 36.1389 303° West  Level Estimated
05:00PM 37.6969 36.0348 303° West  Level Estimated
05:01PM 37.7498 35.9305 303° West  Level Estimated
05:02PM 37.8026 35.8262 303° West  Level Estimated
05:03PM 37.8553 35.7216 303° West  Level Estimated
05:04PM 37.9079 35.6169 303° West  Level Estimated
05:05PM 37.9604 35.5121 302° West  Level Estimated
05:06PM 38.0128 35.4071 302° West  Level Estimated
05:07PM 38.0651 35.3020 302° West  Level Estimated
05:08PM 38.1174 35.1967 302° West  Level Estimated
05:09PM 38.1695 35.0912 302° West  Level Estimated
05:10PM 38.2215 34.9856 302° West  Level Estimated
05:11PM 38.2735 34.8799 302° West  Level Estimated
05:12PM 38.3253 34.7740 302° West  Level Estimated
05:13PM 38.3771 34.6680 302° West  Level Estimated
05:14PM 38.4287 34.5618 302° West  Level Estimated
05:15PM 38.4803 34.4554 302° West  Level Estimated
05:16PM 38.5317 34.3489 302° West  Level Estimated
05:17PM 38.5831 34.2423 302° West  Level Estimated
05:18PM 38.6344 34.1354 302° West  Level Estimated
05:19PM 38.6856 34.0285 302° West  Level Estimated
05:20PM 38.7366 33.9214 301° West  Level Estimated
05:21PM 38.7876 33.8141 301° West  Level Estimated
05:22PM 38.8385 33.7067 301° West  Level Estimated
05:23PM 38.8893 33.5991 301° West  Level Estimated
05:24PM 38.9399 33.4914 301° West  Level Estimated
05:25PM 38.9905 33.3835 301° West  Level Estimated
05:26PM 39.0410 33.2755 301° West  Level Estimated
05:27PM 39.0914 33.1673 301° West  Level Estimated
05:28PM 39.1417 33.0590 301° West  Level Estimated
05:29PM 39.1918 32.9505 301° West  Level Estimated
05:30PM 39.2419 32.8418 301° West  Level Estimated
05:31PM 39.2919 32.7330 301° West  Level Estimated
05:32PM 39.3418 32.6240 301° West  Level Estimated
05:33PM 39.3916 32.5149 301° West  Level Estimated
05:34PM 39.4412 32.4057 301° West  Level Estimated
05:35PM 39.4908 32.2962 300° West  Level Estimated
05:36PM 39.5403 32.1866 300° West  Level Estimated
05:37PM 39.5897 32.0769 300° West  Level Estimated
05:38PM 39.6389 31.9670 300° West  Level Estimated
05:39PM 39.6881 31.8569 300° West  Level Estimated
05:40PM 39.7371 31.7467 300° West  Level Estimated
05:41PM 39.7861 31.6364 300° West  Level Estimated
05:42PM 39.8349 31.5258 300° West  Level Estimated
05:43PM 39.8837 31.4152 300° West  Level Estimated
05:44PM 39.9323 31.3043 300° West  Level Estimated
05:45PM 39.9809 31.1933 300° West  Level Estimated
05:46PM 40.0293 31.0822 300° West  Level Estimated
05:47PM 40.0776 30.9709 300° West  Level Estimated
05:48PM 40.1258 30.8594 300° West  Level Estimated
05:49PM 40.1739 30.7478 299° West  Level Estimated
05:50PM 40.2219 30.6360 299° West  Level Estimated
05:51PM 40.2698 30.5240 299° West  Level Estimated
05:52PM 40.3176 30.4119 299° West  Level Estimated
05:53PM 40.3653 30.2997 299° West  Level Estimated
05:54PM 40.4128 30.1873 299° West  Level Estimated
05:55PM 40.4603 30.0747 299° West  Level Estimated
05:56PM 40.5076 29.9619 299° West  Level Estimated
05:57PM 40.5549 29.8490 299° West  Level Estimated
05:58PM 40.6020 29.7360 299° West  Level Estimated
05:59PM 40.6490 29.6227 299° West  Level Estimated
06:00PM 40.6959 29.5094 299° West  Level Estimated
06:01PM 40.7427 29.3958 299° West  Level Estimated
06:02PM 40.7894 29.2821 299° West  Level Estimated
06:03PM 40.8360 29.1683 298° West  Level Estimated
06:04PM 40.8824 29.0543 298° West  Level Estimated
06:05PM 40.9288 28.9401 298° West  Level Estimated
06:06PM 40.9750 28.8258 298° West  Level Estimated
06:07PM 40.9769 28.8211 298° West  Level Estimated
06:08PM 40.9769 28.8211 21° North  Level Estimated
06:09PM 40.9769 28.8211 21° North  Level Estimated
06:10PM 40.9769 28.8211 21° North  Level Estimated
06:11PM 40.9769 28.8211 21° North  Level Estimated
06:12PM 40.9769 28.8211 21° North  Level Estimated
06:13PM 40.9769 28.8211 21° North  Level Estimated
06:14PM 40.9769 28.8211 21° North  Level Estimated
06:15PM 40.9769 28.8211 21° North  Level Estimated
06:16PM 40.9769 28.8211 21° North  Level Estimated
06:17PM 40.9769 28.8211 21° North  Level Estimated
06:18PM 40.9769 28.8211 21° North  Level Estimated
06:19PM 40.9769 28.8211 21° North  Level Estimated
06:20PM 40.9769 28.8211 21° North  Level Estimated
06:21PM 40.9769 28.8211 21° North  Level Estimated